Time;durP1;ratioP1;P1;durP2;ratioP2;P2;SDS_P1;SDS_P2;PMS_P1;PMS_P2;Temp;Humidity;BMP_temperature;BMP_pressure;BME280_temperature;BME280_humidity;BME280_pressure;Samples;Min_cycle;Max_cycle;Signal;HPM_P1;HPM_P2
2023/09/22 00:00:43;;;;;;;22.63;9.98;;;;;;;10.60;100.00;99905.59;5074348;28;20033;-80
2023/09/22 00:03:10;;;;;;;25.23;10.32;;;;;;;10.62;100.00;99900.09;5074719;28;20077;-81
2023/09/22 00:05:36;;;;;;;20.38;9.98;;;;;;;10.65;100.00;99894.47;5075807;28;20036;-80
2023/09/22 00:08:01;;;;;;;25.83;9.32;;;;;;;10.69;100.00;99896.63;5074351;28;20396;-80
2023/09/22 00:10:27;;;;;;;21.52;8.95;;;;;;;10.70;100.00;99902.78;5076005;28;20226;-80
2023/09/22 00:12:54;;;;;;;18.63;8.63;;;;;;;10.70;100.00;99903.63;5075820;28;20037;-80
2023/09/22 00:15:20;;;;;;;22.20;8.93;;;;;;;10.72;100.00;99898.13;5075602;28;20033;-79
2023/09/22 00:17:45;;;;;;;21.90;9.43;;;;;;;10.72;100.00;99890.16;5076066;28;20034;-79
2023/09/22 00:20:15;;;;;;;33.97;10.77;;;;;;;10.76;100.00;99888.81;5075573;28;20469;-80
2023/09/22 00:22:41;;;;;;;39.22;11.75;;;;;;;10.77;100.00;99890.50;5075344;28;20033;-80
2023/09/22 00:25:09;;;;;;;34.90;12.70;;;;;;;10.82;100.00;99901.47;5075483;28;20055;-80
2023/09/22 00:27:34;;;;;;;46.63;13.98;;;;;;;10.82;100.00;99909.44;5075308;28;20086;-79
2023/09/22 00:30:00;;;;;;;51.28;15.48;;;;;;;10.85;100.00;99924.25;5076151;28;20036;-80
2023/09/22 00:32:25;;;;;;;64.47;18.50;;;;;;;10.90;100.00;99930.75;5075145;28;20028;-80
2023/09/22 00:34:50;;;;;;;81.05;20.45;;;;;;;10.93;100.00;99922.44;5075241;28;20089;-80
2023/09/22 00:37:16;;;;;;;100.60;24.75;;;;;;;10.98;100.00;99931.78;5075075;28;20039;-80
2023/09/22 00:39:41;;;;;;;113.07;26.58;;;;;;;10.94;100.00;99916.13;5074506;28;20055;-80
2023/09/22 00:42:09;;;;;;;131.18;31.35;;;;;;;10.92;100.00;99912.78;5075347;28;20032;-80
2023/09/22 00:44:35;;;;;;;152.23;33.55;;;;;;;10.89;100.00;99917.63;5074660;28;20425;-79
2023/09/22 00:47:02;;;;;;;162.30;37.00;;;;;;;10.87;100.00;99914.31;5074303;28;20072;-79
2023/09/22 00:49:29;;;;;;;188.73;39.63;;;;;;;10.87;100.00;99920.44;5074241;28;20116;-79
2023/09/22 00:51:55;;;;;;;191.35;39.58;;;;;;;10.85;100.00;99916.28;5074965;28;20052;-80
2023/09/22 00:54:21;;;;;;;193.25;39.08;;;;;;;10.81;100.00;99918.44;5074871;28;20036;-80
2023/09/22 00:56:47;;;;;;;168.35;35.88;;;;;;;10.79;100.00;99923.06;5074684;28;20028;-81
2023/09/22 00:59:14;;;;;;;179.65;36.47;;;;;;;10.82;100.00;99930.72;5074720;28;20035;-80
2023/09/22 01:01:42;;;;;;;152.32;32.40;;;;;;;10.85;100.00;99942.88;5074589;28;20028;-80
2023/09/22 01:04:07;;;;;;;149.10;29.67;;;;;;;10.86;100.00;99934.75;5073622;28;20028;-80
2023/09/22 01:06:33;;;;;;;117.47;26.98;;;;;;;10.86;100.00;99928.59;5074227;28;20043;-80
2023/09/22 01:09:05;;;;;;;116.38;27.92;;;;;;;10.87;100.00;99922.28;5075155;28;20104;-80
2023/09/22 01:11:33;;;;;;;124.00;27.90;;;;;;;10.87;100.00;99922.28;5073871;28;20032;-80
2023/09/22 01:13:58;;;;;;;140.40;30.73;;;;;;;10.88;100.00;99915.94;5073165;28;20148;-79
2023/09/22 01:16:24;;;;;;;116.85;28.13;;;;;;;10.89;100.00;99912.28;5074431;28;20480;-78
2023/09/22 01:18:49;;;;;;;136.07;30.00;;;;;;;10.88;100.00;99903.50;5074023;28;20063;-79
2023/09/22 01:21:14;;;;;;;121.22;29.10;;;;;;;10.88;100.00;99897.31;5073276;28;20128;-79
2023/09/22 01:23:40;;;;;;;120.95;28.52;;;;;;;10.92;100.00;99903.97;5072989;28;20416;-78
2023/09/22 01:26:06;;;;;;;114.00;28.42;;;;;;;10.92;100.00;99903.97;5072922;28;20036;-78
2023/09/22 01:28:31;;;;;;;109.75;28.05;;;;;;;10.91;100.00;99900.50;5074397;28;20041;-78
2023/09/22 01:30:56;;;;;;;120.97;27.48;;;;;;;10.91;100.00;99897.84;5072896;28;20035;-78
2023/09/22 01:33:22;;;;;;;115.28;28.33;;;;;;;10.91;100.00;99895.19;5074537;28;20028;-79
2023/09/22 01:35:47;;;;;;;115.70;28.65;;;;;;;10.92;100.00;99896.00;5074528;28;20028;-79
2023/09/22 01:38:16;;;;;;;111.40;27.33;;;;;;;10.91;100.00;99892.53;5074088;28;20059;-79
2023/09/22 01:40:42;;;;;;;112.82;27.90;;;;;;;10.91;100.00;99887.19;5073959;28;20032;-79
2023/09/22 01:43:07;;;;;;;113.15;30.38;;;;;;;10.91;100.00;99883.69;5073884;28;20038;-80
2023/09/22 01:45:32;;;;;;;130.88;31.08;;;;;;;10.91;100.00;99879.22;5073897;28;20029;-79
2023/09/22 01:47:58;;;;;;;129.27;31.05;;;;;;;10.91;100.00;99873.88;5074158;28;20105;-80
2023/09/22 01:50:23;;;;;;;128.48;29.17;;;;;;;10.91;100.00;99878.34;5071789;28;20028;-80
2023/09/22 01:52:49;;;;;;;126.65;31.20;;;;;;;10.92;100.00;99872.03;5073483;28;20025;-80
2023/09/22 01:55:14;;;;;;;119.10;29.80;;;;;;;10.90;100.00;99882.84;5073829;28;20056;-80
2023/09/22 01:57:39;;;;;;;131.30;30.98;;;;;;;10.89;100.00;99872.38;5072763;28;20045;-79
2023/09/22 02:00:06;;;;;;;130.68;30.48;;;;;;;10.89;100.00;99880.38;5073648;28;20040;-80
2023/09/22 02:02:32;;;;;;;131.10;29.33;;;;;;;10.88;100.00;99876.03;5073603;28;20033;-80
2023/09/22 02:04:59;;;;;;;135.30;29.98;;;;;;;10.86;100.00;99881.50;5073476;28;20043;-80
2023/09/22 02:07:24;;;;;;;115.72;27.10;;;;;;;10.85;100.00;99874.56;5073590;28;20107;-79
2023/09/22 02:09:50;;;;;;;103.82;24.77;;;;;;;10.83;100.00;99873.84;5074095;28;20459;-79
2023/09/22 02:12:15;;;;;;;102.82;25.63;;;;;;;10.81;100.00;99867.88;5072225;28;20086;-81
2023/09/22 02:14:40;;;;;;;105.47;24.52;;;;;;;10.79;100.00;99880.50;5072446;28;20037;-79
2023/09/22 02:17:06;;;;;;;98.80;24.05;;;;;;;10.76;100.00;99865.72;5074216;28;20060;-79
2023/09/22 02:19:35;;;;;;;97.07;24.35;;;;;;;10.75;100.00;99872.03;5074198;28;20040;-79
2023/09/22 02:22:00;;;;;;;99.43;23.90;;;;;;;10.76;100.00;99859.53;5074334;28;20036;-79
2023/09/22 02:24:26;;;;;;;91.65;22.55;;;;;;;10.75;100.00;99871.19;5073551;28;20098;-80
2023/09/22 02:26:51;;;;;;;94.50;21.42;;;;;;;10.74;100.00;99867.69;5073961;28;20033;-79
2023/09/22 02:29:16;;;;;;;84.10;20.77;;;;;;;10.76;100.00;99867.53;5073503;28;20119;-79
2023/09/22 02:31:42;;;;;;;78.85;19.73;;;;;;;10.75;100.00;99868.53;5073520;28;20111;-79
2023/09/22 02:34:07;;;;;;;87.57;22.00;;;;;;;10.77;100.00;99869.19;5073644;28;20056;-80
2023/09/22 02:36:32;;;;;;;89.20;20.52;;;;;;;10.79;100.00;99864.53;5073852;28;20380;-80
2023/09/22 02:38:58;;;;;;;88.30;20.67;;;;;;;10.82;100.00;99872.19;5073142;28;20052;-80
2023/09/22 02:41:23;;;;;;;87.00;20.92;;;;;;;10.83;100.00;99867.72;5073748;28;20040;-80
2023/09/22 02:43:48;;;;;;;71.07;18.27;;;;;;;10.83;100.00;99868.53;5073262;28;20054;-80
2023/09/22 02:46:14;;;;;;;90.70;18.38;;;;;;;10.83;100.00;99871.19;5073182;28;20492;-80
2023/09/22 02:48:39;;;;;;;78.93;18.80;;;;;;;10.84;100.00;99866.69;5073292;28;20036;-79
2023/09/22 02:51:08;;;;;;;70.13;18.55;;;;;;;10.83;100.00;99868.53;5072357;28;20082;-79
2023/09/22 02:53:34;;;;;;;71.10;18.27;;;;;;;10.86;100.00;99870.06;5072814;28;20561;-80
2023/09/22 02:56:04;;;;;;;72.97;18.83;;;;;;;10.85;100.00;99866.56;5073090;28;20107;-80
2023/09/22 02:58:30;;;;;;;71.88;18.15;;;;;;;10.84;100.00;99867.56;5073204;28;20457;-80
2023/09/22 03:00:55;;;;;;;77.05;18.65;;;;;;;10.85;100.00;99869.22;5073093;28;20040;-80
2023/09/22 03:03:20;;;;;;;70.78;17.90;;;;;;;10.85;100.00;99868.38;5075975;28;20469;-80
2023/09/22 03:05:46;;;;;;;71.53;17.48;;;;;;;10.83;100.00;99865.06;5077127;28;20029;-79
2023/09/22 03:08:11;;;;;;;70.82;17.35;;;;;;;10.83;100.00;99871.19;5076880;28;20401;-80
2023/09/22 03:10:38;;;;;;;67.40;16.77;;;;;;;10.86;100.00;99867.38;5076955;28;20036;-80
2023/09/22 03:13:03;;;;;;;74.32;17.70;;;;;;;10.86;100.00;99870.88;5076384;28;20036;-80
2023/09/22 03:15:29;;;;;;;68.35;16.48;;;;;;;10.83;100.00;99871.19;5076793;28;20480;-81
2023/09/22 03:17:54;;;;;;;65.68;16.50;;;;;;;10.81;100.00;99872.34;5075564;28;20427;-79
2023/09/22 03:20:20;;;;;;;70.25;16.63;;;;;;;10.79;100.00;99877.84;5076249;28;20485;-79
2023/09/22 03:22:46;;;;;;;72.07;17.75;;;;;;;10.78;100.00;99868.22;5076562;28;20113;-77
2023/09/22 03:25:12;;;;;;;65.35;16.92;;;;;;;10.77;100.00;99866.53;5076572;28;20071;-79
2023/09/22 03:27:37;;;;;;;72.78;18.20;;;;;;;10.76;100.00;99867.53;5076458;28;20383;-79
2023/09/22 03:30:07;;;;;;;74.50;18.05;;;;;;;10.75;100.00;99868.53;5076497;28;20449;-80
2023/09/22 03:32:35;;;;;;;72.20;18.60;;;;;;;10.74;100.00;99869.53;5076069;28;20028;-79
2023/09/22 03:35:02;;;;;;;78.72;18.38;;;;;;;10.77;100.00;99863.88;5077145;28;20123;-79
2023/09/22 03:37:29;;;;;;;68.95;18.40;;;;;;;10.77;100.00;99859.38;5075781;28;20037;-79
2023/09/22 03:39:56;;;;;;;93.47;21.00;;;;;;;10.81;100.00;99861.72;5076415;28;20103;-79
2023/09/22 03:42:23;;;;;;;80.57;20.40;;;;;;;10.82;100.00;99860.72;5076266;28;20044;-79
2023/09/22 03:44:48;;;;;;;76.90;18.45;;;;;;;10.85;100.00;99857.72;5076173;28;20078;-79
2023/09/22 03:47:14;;;;;;;74.43;20.48;;;;;;;10.85;100.00;99865.72;5075824;28;20056;-79
2023/09/22 03:49:39;;;;;;;84.38;19.45;;;;;;;10.86;100.00;99865.53;5075563;28;20088;-79
2023/09/22 03:52:05;;;;;;;85.80;21.35;;;;;;;10.90;100.00;99858.91;5076258;28;20037;-79
2023/09/22 03:54:30;;;;;;;83.45;21.88;;;;;;;10.93;100.00;99861.22;5075648;28;20483;-80
2023/09/22 03:56:56;;;;;;;89.45;21.70;;;;;;;10.96;100.00;99857.41;5075937;28;20404;-77
2023/09/22 03:59:22;;;;;;;72.30;20.77;;;;;;;10.99;100.00;99859.75;5075886;28;20110;-80
2023/09/22 04:01:47;;;;;;;80.15;21.25;;;;;;;11.04;100.00;99859.25;5076002;28;20028;-79
2023/09/22 04:04:14;;;;;;;81.32;21.67;;;;;;;11.06;100.00;99863.41;5075735;28;20032;-79
2023/09/22 04:06:40;;;;;;;79.38;22.30;;;;;;;11.09;100.00;99854.25;5075301;28;20105;-79
2023/09/22 04:09:07;;;;;;;63.05;20.33;;;;;;;11.11;100.00;99857.59;5075952;28;20076;-79
2023/09/22 04:11:33;;;;;;;63.83;21.63;;;;;;;11.13;100.00;99862.75;5074336;28;20048;-80
2023/09/22 04:13:58;;;;;;;62.80;21.27;;;;;;;11.15;100.00;99864.25;5074582;28;20037;-79
2023/09/22 04:16:24;;;;;;;59.90;20.50;;;;;;;11.14;100.00;99859.91;5074496;28;20082;-79
2023/09/22 04:18:54;;;;;;;50.85;19.45;;;;;;;11.13;100.00;99857.41;5075599;28;20032;-79
2023/09/22 04:21:21;;;;;;;47.80;18.48;;;;;;;11.08;100.00;99863.25;5076064;28;20083;-80
2023/09/22 04:23:50;;;;;;;43.78;18.55;;;;;;;11.05;100.00;99863.59;5075991;28;20032;-80
2023/09/22 04:26:16;;;;;;;41.17;17.77;;;;;;;10.98;100.00;99860.75;5075638;28;20037;-79
2023/09/22 04:28:43;;;;;;;49.88;18.75;;;;;;;10.89;100.00;99861.72;5074131;28;20040;-80
2023/09/22 04:31:12;;;;;;;36.42;17.63;;;;;;;10.87;100.00;99871.72;5075220;28;20028;-78
2023/09/22 04:33:37;;;;;;;46.30;18.50;;;;;;;10.90;100.00;99874.06;5075355;28;20138;-79
2023/09/22 04:36:03;;;;;;;47.10;19.60;;;;;;;10.92;100.00;99874.72;5075459;28;20080;-81
2023/09/22 04:38:28;;;;;;;41.35;18.60;;;;;;;10.94;100.00;99870.91;5074766;28;20487;-80
2023/09/22 04:40:58;;;;;;;41.28;17.80;;;;;;;10.97;100.00;99868.88;5075171;28;20064;-81
2023/09/22 04:43:23;;;;;;;38.80;17.80;;;;;;;10.99;100.00;99869.53;5075092;28;20098;-81
2023/09/22 04:45:49;;;;;;;41.05;18.63;;;;;;;11.03;100.00;99873.53;5075757;28;20032;-81
2023/09/22 04:48:16;;;;;;;35.58;18.02;;;;;;;11.07;100.00;99874.88;5075336;28;20484;-80
2023/09/22 04:50:42;;;;;;;38.72;17.63;;;;;;;11.08;100.00;99873.91;5075029;28;20036;-81
2023/09/22 04:53:08;;;;;;;41.03;18.05;;;;;;;11.09;100.00;99883.53;5074662;28;20037;-80
2023/09/22 04:55:37;;;;;;;41.33;18.17;;;;;;;11.11;100.00;99884.22;5075378;28;20037;-80
2023/09/22 04:58:03;;;;;;;35.72;16.63;;;;;;;11.11;100.00;99878.88;5075254;28;20064;-78
2023/09/22 05:00:31;;;;;;;39.85;16.98;;;;;;;11.11;100.00;99874.38;5074755;28;20060;-80
2023/09/22 05:02:57;;;;;;;34.00;17.15;;;;;;;11.10;100.00;99879.88;5074453;28;20082;-80
2023/09/22 05:05:22;;;;;;;33.33;17.98;;;;;;;11.10;100.00;99877.22;5074643;28;20037;-80
2023/09/22 05:07:49;;;;;;;32.45;16.92;;;;;;;11.07;100.00;99880.22;5075177;28;20073;-80
2023/09/22 05:10:14;;;;;;;34.45;15.73;;;;;;;11.06;100.00;99879.38;5074900;28;20036;-80
2023/09/22 05:12:40;;;;;;;28.58;15.90;;;;;;;11.04;100.00;99881.38;5074441;28;20040;-81
2023/09/22 05:15:06;;;;;;;30.45;14.95;;;;;;;11.02;100.00;99888.69;5073190;28;20074;-81
2023/09/22 05:17:32;;;;;;;32.28;15.27;;;;;;;11.02;100.00;99887.88;5074991;28;20029;-80
2023/09/22 05:19:58;;;;;;;25.10;13.52;;;;;;;10.99;100.00;99894.34;5074392;28;20090;-82
2023/09/22 05:22:24;;;;;;;27.27;15.38;;;;;;;10.94;100.00;99896.66;5073930;28;20037;-81
2023/09/22 05:24:49;;;;;;;40.80;20.40;;;;;;;10.89;100.00;99902.47;5074184;28;20029;-80
2023/09/22 05:27:15;;;;;;;80.38;31.85;;;;;;;10.85;100.00;99914.47;5074199;28;20056;-78
2023/09/22 05:29:41;;;;;;;88.38;33.22;;;;;;;10.85;100.00;99914.47;5074121;28;20032;-80
2023/09/22 05:32:08;;;;;;;81.05;29.52;;;;;;;10.85;100.00;99909.16;5073888;28;20124;-79
2023/09/22 05:34:33;;;;;;;43.47;16.38;;;;;;;10.81;100.00;99906.94;5074203;28;20032;-81
2023/09/22 05:37:00;;;;;;;24.77;11.15;;;;;;;10.77;100.00;99912.59;5074092;28;20055;-81
2023/09/22 05:39:25;;;;;;;19.95;9.55;;;;;;;10.73;100.00;99910.44;5073395;28;20449;-82
2023/09/22 05:41:51;;;;;;;16.90;8.60;;;;;;;10.69;100.00;99909.94;5074433;28;20056;-81
2023/09/22 05:44:17;;;;;;;21.90;10.20;;;;;;;10.66;100.00;99914.72;5072881;28;20090;-80
2023/09/22 05:46:43;;;;;;;26.77;11.15;;;;;;;10.64;100.00;99914.06;5074420;28;20037;-82
2023/09/22 05:49:08;;;;;;;26.75;11.50;;;;;;;10.64;100.00;99911.41;5073945;28;20029;-79
2023/09/22 05:51:35;;;;;;;36.75;13.90;;;;;;;10.68;100.00;99918.91;5073752;28;20427;-81
2023/09/22 05:54:00;;;;;;;39.95;15.20;;;;;;;10.71;100.00;99921.22;5073971;28;20033;-81
2023/09/22 05:56:25;;;;;;;36.80;13.90;;;;;;;10.75;100.00;99924.41;5074247;28;20085;-81
2023/09/22 05:58:51;;;;;;;28.75;12.68;;;;;;;10.79;100.00;99915.09;5072544;28;20101;-78
2023/09/22 06:01:16;;;;;;;27.55;13.02;;;;;;;10.83;100.00;99926.25;5073605;28;20115;-80
2023/09/22 06:03:44;;;;;;;24.05;8.63;;;;;;;10.81;100.00;99931.75;5073752;28;20427;-82
2023/09/22 06:06:11;;;;;;;16.60;8.50;;;;;;;10.82;100.00;99920.09;5073478;28;20107;-78
2023/09/22 06:08:38;;;;;;;17.30;8.95;;;;;;;10.83;100.00;99931.59;5074076;28;20032;-81
2023/09/22 06:11:04;;;;;;;19.02;8.88;;;;;;;10.80;100.00;99938.06;5074090;28;20052;-80
2023/09/22 06:13:30;;;;;;;23.63;10.38;;;;;;;10.79;100.00;99935.56;5073566;28;20051;-80
2023/09/22 06:15:56;;;;;;;16.52;9.02;;;;;;;10.79;100.00;99939.03;5073761;28;20511;-80
2023/09/22 06:18:22;;;;;;;26.50;9.23;;;;;;;10.84;100.00;99935.88;5073462;28;20123;-80
2023/09/22 06:20:48;;;;;;;26.08;10.20;;;;;;;10.83;100.00;99927.09;5073598;28;20465;-80
2023/09/22 06:23:13;;;;;;;25.92;9.82;;;;;;;10.86;100.00;99942.72;5072432;28;20029;-80
2023/09/22 06:25:39;;;;;;;29.38;10.50;;;;;;;10.89;100.00;99942.41;5073324;28;20417;-80
2023/09/22 06:28:08;;;;;;;23.13;9.30;;;;;;;10.93;100.00;99950.91;5073418;28;20032;-80
2023/09/22 06:30:34;;;;;;;16.77;8.30;;;;;;;10.98;100.00;99940.59;5073376;28;20029;-79
2023/09/22 06:33:00;;;;;;;17.40;7.05;;;;;;;11.01;100.00;99950.91;5073665;28;20043;-79
2023/09/22 06:35:26;;;;;;;19.60;8.40;;;;;;;11.00;100.00;99941.28;5073754;28;20032;-81
2023/09/22 06:37:51;;;;;;;19.25;7.03;;;;;;;11.01;100.00;99942.09;5073425;28;20194;-82
2023/09/22 06:40:17;;;;;;;14.77;7.50;;;;;;;11.07;100.00;99949.41;5073697;28;20048;-81
2023/09/22 06:42:44;;;;;;;14.93;6.82;;;;;;;11.09;100.00;99952.75;5072070;28;20039;-83
2023/09/22 06:45:11;;;;;;;14.98;6.50;;;;;;;11.13;100.00;99954.09;5073525;28;20047;-83
2023/09/22 06:47:43;;;;;;;12.15;6.03;;;;;;;11.19;100.00;99950.75;5073832;28;20032;-84
2023/09/22 06:50:09;;;;;;;11.60;6.53;;;;;;;11.19;100.00;99958.75;5074228;28;20093;-84
2023/09/22 06:52:36;;;;;;;13.52;6.90;;;;;;;11.17;100.00;99963.41;5072819;28;20419;-85
2023/09/22 06:55:01;;;;;;;15.63;7.38;;;;;;;11.16;100.00;99980.38;5073664;28;20059;-87
2023/09/22 06:57:27;;;;;;;14.93;7.28;;;;;;;11.23;100.00;99973.41;5073053;28;20389;-83
2023/09/22 06:59:53;;;;;;;15.90;7.32;;;;;;;11.32;100.00;99976.91;5073159;28;20488;-85
2023/09/22 07:02:18;;;;;;;15.02;6.55;;;;;;;11.31;100.00;99980.56;5073088;28;20044;-85
2023/09/22 07:04:44;;;;;;;13.90;6.35;;;;;;;11.31;100.00;99996.53;5073467;28;20526;-83
2023/09/22 07:07:11;;;;;;;14.05;5.68;;;;;;;11.27;100.00;99990.72;5055150;28;20484;-84
2023/09/22 07:09:37;;;;;;;12.50;6.50;;;;;;;11.29;100.00;99991.38;5072938;28;20162;-87
2023/09/22 07:12:04;;;;;;;12.80;6.25;;;;;;;11.41;100.00;100002.56;5073169;28;20025;-85
2023/09/22 07:14:31;;;;;;;9.57;5.65;;;;;;;11.50;100.00;100010.56;5071769;28;20472;-88
2023/09/22 07:16:57;;;;;;;6.35;4.18;;;;;;;11.46;100.00;100008.25;5073483;28;20060;-80
2023/09/22 07:19:23;;;;;;;6.30;3.53;;;;;;;11.54;100.00;100018.06;5072704;28;20033;-86
2023/09/22 07:21:48;;;;;;;6.25;3.25;;;;;;;11.58;100.00;100018.56;5072613;28;20032;-88
2023/09/22 07:24:15;;;;;;;4.47;3.20;;;;;;;11.64;100.00;100015.22;5071556;28;20111;-83
2023/09/22 07:26:40;;;;;;;8.65;3.13;;;;;;;11.67;100.00;100016.72;5073333;28;20079;-83
2023/09/22 07:29:05;;;;;;;6.68;3.80;;;;;;;11.69;100.00;100020.03;5072491;28;20036;-85
2023/09/22 07:31:31;;;;;;;5.80;3.53;;;;;;;11.73;100.00;100021.38;5072389;28;20396;-86
2023/09/22 07:33:57;;;;;;;7.85;5.38;;;;;;;11.69;100.00;100017.38;5072506;28;20036;-88
2023/09/22 07:36:23;;;;;;;6.03;4.60;;;;;;;11.66;100.00;100029.22;5072891;28;20109;-77
2023/09/22 07:38:48;;;;;;;8.95;6.22;;;;;;;11.59;100.00;100037.03;5071994;28;20045;-84
2023/09/22 07:41:14;;;;;;;8.93;5.72;;;;;;;11.53;100.00;100031.56;5072566;28;20465;-86
2023/09/22 07:43:39;;;;;;;10.35;6.07;;;;;;;11.55;100.00;100033.03;5072515;28;20049;-87
2023/09/22 07:46:06;;;;;;;6.45;5.15;;;;;;;11.53;100.00;100028.88;5071259;28;20032;-87
2023/09/22 07:48:32;;;;;;;9.73;6.00;;;;;;;11.58;100.00;100037.19;5072236;28;20048;-83
2023/09/22 07:51:00;;;;;;;9.27;6.43;;;;;;;11.60;100.00;100029.91;5075656;28;20029;-86
2023/09/22 07:53:25;;;;;;;10.07;5.78;;;;;;;11.63;100.00;100045.53;5074412;28;20024;-84
2023/09/22 07:56:01;;;;;;;10.13;6.25;;;;;;;11.64;100.00;100039.19;5075772;28;20473;-87
2023/09/22 07:58:27;;;;;;;8.68;6.05;;;;;;;11.63;100.00;100040.22;5076200;28;20025;-84
2023/09/22 08:00:53;;;;;;;8.57;6.45;;;;;;;11.60;100.00;100053.88;5075690;28;20037;-85
2023/09/22 08:03:20;;;;;;;8.65;6.25;;;;;;;11.55;100.00;100054.34;5075528;28;20116;-79
2023/09/22 08:05:46;;;;;;;10.13;6.47;;;;;;;11.54;100.00;100058.03;5076024;28;20114;-84
2023/09/22 08:08:13;;;;;;;8.60;6.68;;;;;;;11.59;100.00;100060.19;5074841;28;20528;-88
2023/09/22 08:10:39;;;;;;;12.35;6.82;;;;;;;11.62;100.00;100067.84;5075596;28;20031;-85
2023/09/22 08:13:08;;;;;;;9.55;6.18;;;;;;;11.62;100.00;100071.34;5075423;28;20403;-82
2023/09/22 08:15:35;;;;;;;9.15;5.88;;;;;;;11.58;100.00;100079.81;5075490;28;20060;-88
2023/09/22 08:18:02;;;;;;;10.95;5.88;;;;;;;11.61;100.00;100077.69;5075439;28;20055;-85
2023/09/22 08:20:28;;;;;;;7.63;5.43;;;;;;;11.64;100.00;100082.69;5076131;28;20029;-84
2023/09/22 08:22:54;;;;;;;8.98;5.65;;;;;;;11.63;100.00;100078.34;5074102;28;20044;-84
2023/09/22 08:25:20;;;;;;;8.13;5.80;;;;;;;11.67;100.00;100084.16;5074972;28;20054;-87
2023/09/22 08:27:48;;;;;;;11.70;5.72;;;;;;;11.72;100.00;100083.66;5075410;28;20063;-87
2023/09/22 08:30:13;;;;;;;7.97;5.60;;;;;;;11.73;100.00;100086.16;5075123;28;20036;-85
2023/09/22 08:32:41;;;;;;;9.45;5.95;;;;;;;12.03;100.00;100081.22;5075155;28;20037;-83
2023/09/22 08:35:12;;;;;;;7.75;5.13;;;;;;;12.15;100.00;100089.72;5075147;28;20024;-89
2023/09/22 08:37:41;;;;;;;9.73;5.40;;;;;;;12.33;100.00;100092.19;5074152;28;20330;-86
2023/09/22 08:40:17;;;;;;;7.85;5.68;;;;;;;12.57;100.00;100095.81;5075120;28;20154;-80
2023/09/22 08:42:44;;;;;;;7.60;4.78;;;;;;;12.72;100.00;100098.63;5075351;28;20032;-89
2023/09/22 08:45:10;;;;;;;6.15;4.40;;;;;;;13.24;100.00;100095.41;5074705;28;20040;-87
2023/09/22 08:47:40;;;;;;;4.93;3.90;;;;;;;13.71;100.00;100091.84;5074845;28;20457;-83
2023/09/22 08:50:17;;;;;;;8.00;3.30;;;;;;;14.18;100.00;100097.16;5074999;28;20186;-81
2023/09/22 08:52:44;;;;;;;5.43;2.80;;;;;;;14.59;100.00;100094.09;5074908;28;20035;-86
2023/09/22 08:55:16;;;;;;;6.15;2.92;;;;;;;14.70;100.00;100103.56;5075106;28;20033;-86
2023/09/22 08:57:44;;;;;;;6.05;2.92;;;;;;;14.60;100.00;100103.78;5075397;28;20457;-84
2023/09/22 09:00:18;;;;;;;6.63;2.88;;;;;;;14.33;100.00;100106.06;5074482;28;20040;-87
2023/09/22 09:02:45;;;;;;;3.22;3.03;;;;;;;14.07;100.00;100106.44;5075209;28;20436;-85
2023/09/22 09:05:28;;;;;;;5.97;3.58;;;;;;;14.25;100.00;100111.47;5073721;28;20033;-86
2023/09/22 09:08:08;;;;;;;5.75;3.90;;;;;;;14.98;100.00;100122.47;5074787;28;20418;-82
2023/09/22 09:10:34;;;;;;;5.47;3.80;;;;;;;15.16;100.00;100116.75;5073790;28;20338;-84
2023/09/22 09:13:01;;;;;;;10.20;4.43;;;;;;;15.43;100.00;100117.88;5074403;28;20037;-86
2023/09/22 09:15:28;;;;;;;8.50;3.58;;;;;;;15.73;100.00;100125.03;5074415;28;20108;-84
2023/09/22 09:18:07;;;;;;;5.70;3.50;;;;;;;15.97;100.00;100105.91;5074216;28;20056;-81
2023/09/22 09:20:36;;;;;;;5.78;2.80;;;;;;;16.87;100.00;100108.88;5074028;28;20120;-83
2023/09/22 09:23:18;;;;;;;2.90;2.15;;;;;;;16.94;100.00;100111.59;5074054;28;20029;-85
2023/09/22 09:25:49;;;;;;;2.95;2.10;;;;;;;16.71;100.00;100109.97;5074195;28;20032;-85
2023/09/22 09:28:16;;;;;;;5.60;2.35;;;;;;;17.10;100.00;100113.94;5073926;28;20028;-86
2023/09/22 09:30:54;;;;;;;4.53;1.90;;;;;;;16.54;100.00;100106.78;5073760;28;20191;-87
2023/09/22 09:33:24;;;;;;;4.13;1.70;;;;;;;15.69;100.00;100124.59;5074339;28;20101;-86
2023/09/22 09:35:51;;;;;;;4.60;1.80;;;;;;;15.11;100.00;100129.88;5073828;28;20047;-83
2023/09/22 09:38:17;;;;;;;4.03;2.00;;;;;;;14.86;100.00;100129.34;5073520;28;20052;-83
2023/09/22 09:40:43;;;;;;;2.75;1.75;;;;;;;14.92;100.00;100128.59;5073911;28;20039;-84
2023/09/22 09:43:13;;;;;;;4.68;1.77;;;;;;;16.00;100.00;100127.00;5073255;28;20044;-85
2023/09/22 09:45:46;;;;;;;3.65;1.80;;;;;;;17.59;100.00;100116.63;5073720;28;20038;-83
2023/09/22 09:48:17;;;;;;;4.70;1.70;;;;;;;18.53;100.00;100128.31;5073736;28;20025;-85
2023/09/22 09:50:59;;;;;;;3.08;1.65;;;;;;;18.96;100.00;100118.94;5073474;28;20029;-84
2023/09/22 09:53:40;;;;;;;3.03;1.63;;;;;;;19.39;100.00;100131.84;5072782;28;20036;-84
2023/09/22 09:56:06;;;;;;;7.50;1.65;;;;;;;18.94;100.00;100126.41;5073906;28;20036;-84
2023/09/22 09:58:35;;;;;;;4.50;1.33;;;;;;;19.17;100.00;100139.41;5073354;28;20033;-83
2023/09/22 10:01:05;;;;;;;6.28;1.30;;;;;;;19.22;100.00;100128.00;5073241;28;20433;-83
2023/09/22 10:03:31;;;;;;;2.63;1.20;;;;;;;18.99;100.00;100134.72;5073642;28;20037;-83
2023/09/22 10:05:57;;;;;;;2.65;1.00;;;;;;;18.76;100.00;100145.91;5073271;28;20036;-86
2023/09/22 10:08:25;;;;;;;1.67;1.05;;;;;;;18.68;100.00;100137.00;5073794;28;20032;-85
2023/09/22 10:10:53;;;;;;;1.58;1.10;;;;;;;17.89;100.00;100130.56;5072157;28;20028;-84
2023/09/22 10:13:19;;;;;;;1.73;1.10;;;;;;;17.13;100.00;100138.78;5073115;28;20036;-86
2023/09/22 10:15:52;;;;;;;3.90;1.10;;;;;;;16.56;100.00;100149.56;5074176;28;20483;-83
2023/09/22 10:18:18;;;;;;;3.00;1.20;;;;;;;16.34;100.00;100146.06;5073645;28;20086;-88
2023/09/22 10:20:45;;;;;;;7.40;1.20;;;;;;;16.34;100.00;100141.50;5073647;28;20056;-88
2023/09/22 10:23:22;;;;;;;2.30;1.00;;;;;;;16.55;100.00;100142.50;5073172;28;20036;-87
2023/09/22 10:26:19;;;;;;;1.23;1.13;;;;;;;16.29;100.00;100145.81;5073679;28;20032;-82
2023/09/22 10:28:45;;;;;;;2.25;1.38;;;;;;;16.46;100.00;100147.19;5073813;28;20104;-84
2023/09/22 10:31:11;;;;;;;4.28;1.13;;;;;;;16.43;100.00;100149.44;5074306;28;20105;-85
2023/09/22 10:33:37;;;;;;;3.45;1.35;;;;;;;16.50;100.00;100145.78;5075041;28;20472;-87
2023/09/22 10:36:04;;;;;;;5.78;1.55;;;;;;;16.57;100.00;100138.63;5073798;28;20044;-86
2023/09/22 10:38:53;;;;;;;4.47;1.27;;;;;;;16.38;100.00;100153.53;5072995;28;20040;-85
2023/09/22 10:41:19;;;;;;;3.17;1.20;;;;;;;16.56;100.00;100149.56;5073259;28;20036;-84
2023/09/22 10:43:58;;;;;;;2.28;1.27;;;;;;;16.75;100.00;100150.72;5073491;28;20094;-86
2023/09/22 10:46:24;;;;;;;1.92;1.02;;;;;;;16.81;100.00;100158.00;5073604;28;20048;-85
2023/09/22 10:48:50;;;;;;;2.45;1.25;;;;;;;16.85;100.00;100153.88;5071860;28;20044;-86
2023/09/22 10:51:15;;;;;;;2.08;1.00;;;;;;;16.81;100.00;100155.31;5073298;28;20025;-85
2023/09/22 10:53:40;;;;;;;2.42;1.17;;;;;;;16.53;100.00;100155.31;5073084;28;20051;-86
2023/09/22 10:56:06;;;;;;;2.33;1.20;;;;;;;16.74;100.00;100155.25;5073268;28;20040;-87
2023/09/22 10:58:31;;;;;;;2.20;1.25;;;;;;;16.86;100.00;100149.34;5073123;28;20044;-83
2023/09/22 11:01:08;;;;;;;3.42;1.20;;;;;;;16.71;100.00;100160.19;5073920;28;20029;-86
2023/09/22 11:03:35;;;;;;;3.47;1.10;;;;;;;16.36;100.00;100163.66;5074110;28;20032;-79
2023/09/22 11:06:03;;;;;;;4.00;1.10;;;;;;;16.11;100.00;100171.25;5073791;28;20035;-78
2023/09/22 11:08:28;;;;;;;3.13;1.10;;;;;;;15.82;100.00;100166.81;5072820;28;20029;-81
2023/09/22 11:10:56;;;;;;;2.45;1.17;;;;;;;15.77;100.00;100177.28;5072900;28;20060;-80